Time;durP1;ratioP1;P1;durP2;ratioP2;P2;SDS_P1;SDS_P2;PMS_P1;PMS_P2;Temp;Humidity;BMP_temperature;BMP_pressure;BME280_temperature;BME280_humidity;BME280_pressure;Samples;Min_cycle;Max_cycle;Signal;HPM_P1;HPM_P2
2021/12/03 00:00:43;;;;;;;;;;;20.30;37.60;;;;;;478335;249;2132;-46
2021/12/03 00:02:44;;;;;;;;;;;20.20;37.70;;;;;;478219;249;1250;-46
2021/12/03 00:04:45;;;;;;;;;;;20.30;37.70;;;;;;478348;249;1157;-46
2021/12/03 00:06:47;;;;;;;;;;;20.30;37.70;;;;;;478635;249;1203;-46
2021/12/03 00:08:48;;;;;;;;;;;20.30;37.60;;;;;;478358;248;1068;-46
2021/12/03 00:10:54;;;;;;;;;;;20.30;37.70;;;;;;478283;249;1118;-46
2021/12/03 00:12:51;;;;;;;;;;;20.30;37.70;;;;;;478100;248;2199;-46
2021/12/03 00:14:52;;;;;;;;;;;20.20;37.70;;;;;;478345;249;1066;-46
2021/12/03 00:16:53;;;;;;;;;;;20.30;37.80;;;;;;478293;249;2308;-46
2021/12/03 00:18:55;;;;;;;;;;;20.30;37.70;;;;;;478466;249;1152;-46
2021/12/03 00:20:56;;;;;;;;;;;20.30;37.70;;;;;;478646;248;2128;-46
2021/12/03 00:22:58;;;;;;;;;;;20.30;37.70;;;;;;478804;249;1083;-46
2021/12/03 00:24:59;;;;;;;;;;;20.30;37.70;;;;;;478391;249;995;-46
2021/12/03 00:27:00;;;;;;;;;;;20.30;37.70;;;;;;478350;249;1101;-46
2021/12/03 00:29:02;;;;;;;;;;;20.30;37.70;;;;;;478282;249;1100;-46
2021/12/03 00:31:03;;;;;;;;;;;20.30;37.70;;;;;;478270;249;1069;-46
2021/12/03 00:33:04;;;;;;;;;;;20.30;37.70;;;;;;478406;248;1045;-46
2021/12/03 00:35:06;;;;;;;;;;;20.30;37.60;;;;;;478430;249;1703;-46
2021/12/03 00:37:07;;;;;;;;;;;20.30;37.70;;;;;;478815;248;1177;-46
2021/12/03 00:39:08;;;;;;;;;;;20.30;37.70;;;;;;478378;249;1546;-46
2021/12/03 00:41:11;;;;;;;;;;;20.30;37.60;;;;;;478679;249;2191;-46
2021/12/03 00:43:11;;;;;;;;;;;20.30;37.60;;;;;;478262;248;2141;-46
2021/12/03 00:45:12;;;;;;;;;;;20.30;37.60;;;;;;478362;249;1068;-46
2021/12/03 00:47:13;;;;;;;;;;;20.30;37.60;;;;;;478769;248;1204;-46
2021/12/03 00:49:15;;;;;;;;;;;20.30;37.70;;;;;;478339;249;1189;-45
2021/12/03 00:51:16;;;;;;;;;;;20.30;37.70;;;;;;478643;249;1158;-47
2021/12/03 00:53:17;;;;;;;;;;;20.30;37.60;;;;;;478289;249;1124;-46
2021/12/03 00:55:19;;;;;;;;;;;20.30;37.70;;;;;;478568;249;1118;-46
2021/12/03 00:57:20;;;;;;;;;;;20.30;37.70;;;;;;478345;249;1269;-46
2021/12/03 00:59:21;;;;;;;;;;;20.30;37.70;;;;;;478307;248;1099;-46
2021/12/03 01:01:23;;;;;;;;;;;20.20;37.70;;;;;;478260;249;2202;-46
2021/12/03 01:03:24;;;;;;;;;;;20.30;37.80;;;;;;478437;249;1097;-46
2021/12/03 01:05:25;;;;;;;;;;;20.30;37.80;;;;;;478411;249;1204;-46
2021/12/03 01:07:27;;;;;;;;;;;20.30;37.70;;;;;;478610;249;1241;-46
2021/12/03 01:09:31;;;;;;;;;;;20.30;37.60;;;;;;478577;249;1029;-46
2021/12/03 01:11:29;;;;;;;;;;;20.30;37.60;;;;;;478303;248;1564;-46
2021/12/03 01:13:31;;;;;;;;;;;20.30;37.70;;;;;;478354;249;1296;-46
2021/12/03 01:15:32;;;;;;;;;;;20.20;37.80;;;;;;478559;249;1093;-46
2021/12/03 01:17:33;;;;;;;;;;;20.20;37.70;;;;;;478287;249;1510;-46
2021/12/03 01:19:34;;;;;;;;;;;20.30;37.70;;;;;;478559;249;1193;-46
2021/12/03 01:21:36;;;;;;;;;;;20.30;37.70;;;;;;478363;249;2198;-46
2021/12/03 01:23:37;;;;;;;;;;;20.30;37.70;;;;;;478301;249;1061;-46
2021/12/03 01:25:38;;;;;;;;;;;20.20;37.70;;;;;;478631;249;1362;-46
2021/12/03 01:27:40;;;;;;;;;;;20.30;37.70;;;;;;478223;249;1189;-46
2021/12/03 01:29:41;;;;;;;;;;;20.40;37.60;;;;;;478441;249;1092;-47
2021/12/03 01:31:42;;;;;;;;;;;20.60;37.20;;;;;;478681;249;1335;-46
2021/12/03 01:33:44;;;;;;;;;;;20.80;36.80;;;;;;478790;249;1059;-46
2021/12/03 01:35:45;;;;;;;;;;;20.90;36.50;;;;;;478370;249;1240;-47
2021/12/03 01:37:46;;;;;;;;;;;21.00;36.30;;;;;;478568;248;1553;-47
2021/12/03 01:39:48;;;;;;;;;;;21.10;36.10;;;;;;478503;249;1146;-46
2021/12/03 01:41:49;;;;;;;;;;;21.20;36.00;;;;;;478221;249;2144;-46
2021/12/03 01:43:52;;;;;;;;;;;21.30;35.90;;;;;;478694;249;986;-46
2021/12/03 01:45:52;;;;;;;;;;;21.30;35.80;;;;;;478251;249;2073;-47
2021/12/03 01:47:53;;;;;;;;;;;21.40;35.70;;;;;;478390;249;1234;-46
2021/12/03 01:49:55;;;;;;;;;;;21.50;35.60;;;;;;478571;249;1121;-47
2021/12/03 01:51:56;;;;;;;;;;;21.50;35.60;;;;;;478364;249;1190;-47
2021/12/03 01:53:57;;;;;;;;;;;21.50;35.50;;;;;;478360;248;1085;-47
2021/12/03 01:55:58;;;;;;;;;;;21.50;35.40;;;;;;478379;248;1527;-47
2021/12/03 01:58:00;;;;;;;;;;;21.60;35.40;;;;;;478376;249;1074;-47
2021/12/03 02:00:01;;;;;;;;;;;21.60;35.30;;;;;;478725;249;1068;-47
2021/12/03 02:02:02;;;;;;;;;;;21.60;35.30;;;;;;478573;249;2162;-46
2021/12/03 02:04:04;;;;;;;;;;;21.70;35.20;;;;;;478681;249;1136;-47
2021/12/03 02:06:05;;;;;;;;;;;21.70;35.20;;;;;;478257;249;1180;-46
2021/12/03 02:08:06;;;;;;;;;;;21.70;35.20;;;;;;478770;248;1207;-46
2021/12/03 02:10:08;;;;;;;;;;;21.70;35.10;;;;;;478366;248;1375;-47
2021/12/03 02:12:09;;;;;;;;;;;21.70;35.10;;;;;;478579;248;1044;-46
2021/12/03 02:14:10;;;;;;;;;;;21.80;35.10;;;;;;478660;249;1057;-47
2021/12/03 02:16:12;;;;;;;;;;;21.80;35.10;;;;;;478364;249;1110;-47
2021/12/03 02:18:13;;;;;;;;;;;21.80;35.00;;;;;;478396;249;1074;-47
2021/12/03 02:20:14;;;;;;;;;;;21.90;35.00;;;;;;478568;249;1195;-47
2021/12/03 02:22:16;;;;;;;;;;;21.80;35.00;;;;;;478505;249;2187;-46
2021/12/03 02:24:21;;;;;;;;;;;21.90;35.00;;;;;;478618;249;1065;-46
2021/12/03 02:26:18;;;;;;;;;;;21.90;35.00;;;;;;478041;249;2204;-46
2021/12/03 02:28:19;;;;;;;;;;;21.90;34.90;;;;;;478691;249;1049;-47
2021/12/03 02:30:21;;;;;;;;;;;21.90;34.90;;;;;;478308;248;1238;-47
2021/12/03 02:32:22;;;;;;;;;;;21.90;34.90;;;;;;478675;248;1218;-47
2021/12/03 02:34:23;;;;;;;;;;;21.90;34.80;;;;;;478576;249;999;-46
2021/12/03 02:36:25;;;;;;;;;;;22.00;34.90;;;;;;478319;248;1297;-46
2021/12/03 02:38:27;;;;;;;;;;;22.00;34.90;;;;;;478685;249;1284;-46
2021/12/03 02:40:28;;;;;;;;;;;22.00;34.80;;;;;;478778;249;1150;-46
2021/12/03 02:42:29;;;;;;;;;;;22.00;34.80;;;;;;478389;249;2135;-46
2021/12/03 02:44:31;;;;;;;;;;;22.00;34.80;;;;;;478792;248;1084;-47
2021/12/03 02:46:32;;;;;;;;;;;22.00;34.80;;;;;;478629;249;1384;-46
2021/12/03 02:48:35;;;;;;;;;;;22.10;34.80;;;;;;478710;249;1070;-47
2021/12/03 02:50:34;;;;;;;;;;;22.00;34.70;;;;;;478414;248;2282;-46
2021/12/03 02:52:36;;;;;;;;;;;22.10;34.80;;;;;;478307;249;1075;-47
2021/12/03 02:54:37;;;;;;;;;;;22.10;34.70;;;;;;478542;249;1073;-46
2021/12/03 02:56:39;;;;;;;;;;;22.10;34.70;;;;;;478821;248;988;-46
2021/12/03 02:58:40;;;;;;;;;;;22.10;34.70;;;;;;478356;249;1067;-46
2021/12/03 03:00:41;;;;;;;;;;;22.10;34.70;;;;;;478257;248;1175;-46
2021/12/03 03:02:43;;;;;;;;;;;22.10;34.70;;;;;;478261;249;2190;-46
2021/12/03 03:04:44;;;;;;;;;;;22.10;34.70;;;;;;478847;248;1080;-46
2021/12/03 03:06:45;;;;;;;;;;;22.10;34.70;;;;;;478318;248;1223;-46
2021/12/03 03:08:48;;;;;;;;;;;22.10;34.60;;;;;;478743;248;1074;-47
2021/12/03 03:10:48;;;;;;;;;;;22.10;34.60;;;;;;478565;249;2378;-47
2021/12/03 03:12:49;;;;;;;;;;;22.20;34.60;;;;;;478330;249;1323;-46
2021/12/03 03:14:51;;;;;;;;;;;22.10;34.60;;;;;;478797;249;1092;-46
2021/12/03 03:16:52;;;;;;;;;;;22.20;34.60;;;;;;478282;249;1204;-46
2021/12/03 03:18:53;;;;;;;;;;;22.20;34.60;;;;;;478496;249;1001;-46
2021/12/03 03:20:55;;;;;;;;;;;22.20;34.60;;;;;;478475;249;1326;-47
2021/12/03 03:22:56;;;;;;;;;;;22.20;34.60;;;;;;478430;249;2195;-46
2021/12/03 03:25:00;;;;;;;;;;;22.20;34.60;;;;;;478769;249;1347;-47
2021/12/03 03:26:59;;;;;;;;;;;22.20;34.60;;;;;;478182;249;2351;-46
2021/12/03 03:29:01;;;;;;;;;;;22.20;34.60;;;;;;478721;249;1066;-46
2021/12/03 03:31:02;;;;;;;;;;;22.20;34.50;;;;;;478386;249;1049;-46
2021/12/03 03:33:03;;;;;;;;;;;22.20;34.50;;;;;;478424;249;1295;-47
2021/12/03 03:35:05;;;;;;;;;;;22.20;34.50;;;;;;478364;249;1076;-47
2021/12/03 03:37:06;;;;;;;;;;;22.20;34.50;;;;;;478280;249;1363;-47
2021/12/03 03:39:07;;;;;;;;;;;22.30;34.50;;;;;;478363;249;1038;-46
2021/12/03 03:41:09;;;;;;;;;;;22.30;34.50;;;;;;478627;249;1384;-47
2021/12/03 03:43:10;;;;;;;;;;;22.30;34.50;;;;;;478737;249;2203;-46
2021/12/03 03:45:13;;;;;;;;;;;22.30;34.50;;;;;;478771;249;1101;-47
2021/12/03 03:47:13;;;;;;;;;;;22.30;34.50;;;;;;478363;249;2289;-47
2021/12/03 03:49:14;;;;;;;;;;;22.30;34.50;;;;;;478298;249;1116;-46
2021/12/03 03:51:15;;;;;;;;;;;22.40;34.50;;;;;;478207;249;1191;-47
2021/12/03 03:53:17;;;;;;;;;;;22.30;34.40;;;;;;478457;249;1051;-46
2021/12/03 03:55:18;;;;;;;;;;;22.40;34.50;;;;;;478840;249;1133;-47
2021/12/03 03:57:19;;;;;;;;;;;22.30;34.40;;;;;;478380;248;1081;-47
2021/12/03 03:59:21;;;;;;;;;;;22.40;34.40;;;;;;478292;248;1043;-47
2021/12/03 04:01:22;;;;;;;;;;;22.40;34.40;;;;;;478615;249;1337;-47
2021/12/03 04:03:23;;;;;;;;;;;22.40;34.50;;;;;;478652;249;2108;-46
2021/12/03 04:05:25;;;;;;;;;;;22.30;34.40;;;;;;478732;249;1069;-47
2021/12/03 04:07:26;;;;;;;;;;;22.40;34.40;;;;;;478373;249;1247;-47
2021/12/03 04:09:27;;;;;;;;;;;22.40;34.40;;;;;;478629;249;993;-47
2021/12/03 04:11:29;;;;;;;;;;;22.40;34.40;;;;;;478325;249;1041;-47
2021/12/03 04:13:30;;;;;;;;;;;22.40;34.30;;;;;;478684;248;981;-46
2021/12/03 04:15:31;;;;;;;;;;;22.40;34.40;;;;;;478353;249;1061;-46
2021/12/03 04:17:32;;;;;;;;;;;22.40;34.40;;;;;;478547;248;1091;-47
2021/12/03 04:19:34;;;;;;;;;;;22.40;34.40;;;;;;478612;249;1059;-47
2021/12/03 04:21:35;;;;;;;;;;;22.40;34.30;;;;;;478333;249;1236;-46
2021/12/03 04:23:36;;;;;;;;;;;22.50;34.40;;;;;;478341;249;2190;-47
2021/12/03 04:25:38;;;;;;;;;;;22.40;34.30;;;;;;478640;249;1451;-46
2021/12/03 04:27:39;;;;;;;;;;;22.40;34.30;;;;;;478318;249;1269;-47
2021/12/03 04:29:41;;;;;;;;;;;22.50;34.40;;;;;;478438;249;1187;-47
2021/12/03 04:31:42;;;;;;;;;;;22.40;34.30;;;;;;478277;249;1606;-46
2021/12/03 04:33:43;;;;;;;;;;;22.40;34.40;;;;;;478349;249;1105;-47
2021/12/03 04:35:45;;;;;;;;;;;22.50;34.40;;;;;;478786;248;1115;-47
2021/12/03 04:37:46;;;;;;;;;;;22.50;34.40;;;;;;478291;249;1128;-46
2021/12/03 04:39:47;;;;;;;;;;;22.50;34.30;;;;;;478362;248;1060;-46
2021/12/03 04:41:49;;;;;;;;;;;22.50;34.30;;;;;;478701;249;1103;-46
2021/12/03 04:43:50;;;;;;;;;;;22.50;34.30;;;;;;478748;249;2295;-46
2021/12/03 04:45:51;;;;;;;;;;;22.50;34.30;;;;;;478747;249;1316;-47
2021/12/03 04:47:52;;;;;;;;;;;22.50;34.30;;;;;;478480;249;1042;-46
2021/12/03 04:49:54;;;;;;;;;;;22.50;34.30;;;;;;478403;249;1003;-46
2021/12/03 04:51:55;;;;;;;;;;;22.50;34.30;;;;;;478565;249;1167;-47
2021/12/03 04:53:57;;;;;;;;;;;22.50;34.30;;;;;;478617;249;1072;-46
2021/12/03 04:55:58;;;;;;;;;;;22.50;34.30;;;;;;478484;249;1074;-46
2021/12/03 04:57:59;;;;;;;;;;;22.50;34.20;;;;;;478634;249;1132;-47
2021/12/03 05:00:00;;;;;;;;;;;22.50;34.30;;;;;;478418;249;1021;-47
2021/12/03 05:02:02;;;;;;;;;;;22.60;34.30;;;;;;478156;249;1229;-47
2021/12/03 05:04:03;;;;;;;;;;;22.60;34.30;;;;;;478476;249;1035;-47
2021/12/03 05:06:08;;;;;;;;;;;22.60;34.30;;;;;;478701;249;1269;-47
2021/12/03 05:08:08;;;;;;;;;;;22.60;34.30;;;;;;478149;248;2568;-46
2021/12/03 05:10:09;;;;;;;;;;;22.60;34.30;;;;;;478764;249;1226;-47
2021/12/03 05:12:10;;;;;;;;;;;22.60;34.20;;;;;;478678;249;1245;-47
2021/12/03 05:14:12;;;;;;;;;;;22.60;34.20;;;;;;478763;249;1101;-47
2021/12/03 05:16:13;;;;;;;;;;;22.60;34.20;;;;;;478636;249;2101;-46
2021/12/03 05:18:14;;;;;;;;;;;22.60;34.20;;;;;;478339;249;1168;-46
2021/12/03 05:20:15;;;;;;;;;;;22.60;34.20;;;;;;478723;248;1254;-47
2021/12/03 05:22:17;;;;;;;;;;;22.60;34.20;;;;;;478410;249;2191;-47
2021/12/03 05:24:18;;;;;;;;;;;22.60;34.20;;;;;;478722;249;1072;-47
2021/12/03 05:26:19;;;;;;;;;;;22.60;34.20;;;;;;478689;248;1219;-46
2021/12/03 05:28:21;;;;;;;;;;;22.60;34.20;;;;;;478293;249;1066;-46
2021/12/03 05:30:22;;;;;;;;;;;22.60;34.10;;;;;;478565;249;1107;-47
2021/12/03 05:32:23;;;;;;;;;;;22.70;34.10;;;;;;478463;249;1088;-46
2021/12/03 05:34:25;;;;;;;;;;;22.70;34.20;;;;;;478540;248;1245;-46
2021/12/03 05:36:26;;;;;;;;;;;22.70;34.20;;;;;;478208;248;1339;-47
2021/12/03 05:38:27;;;;;;;;;;;22.70;34.10;;;;;;478256;248;1234;-47
2021/12/03 05:40:29;;;;;;;;;;;22.70;34.10;;;;;;478272;249;1144;-47
2021/12/03 05:42:30;;;;;;;;;;;22.70;34.10;;;;;;478208;249;2201;-47
2021/12/03 05:44:31;;;;;;;;;;;22.60;34.20;;;;;;478412;249;1220;-46
2021/12/03 05:46:33;;;;;;;;;;;22.50;34.30;;;;;;478484;249;1181;-47
2021/12/03 05:48:34;;;;;;;;;;;22.50;34.50;;;;;;478370;248;1229;-47
2021/12/03 05:50:35;;;;;;;;;;;22.30;34.70;;;;;;478213;248;1401;-47
2021/12/03 05:52:37;;;;;;;;;;;22.10;35.00;;;;;;478373;248;1258;-46
2021/12/03 05:54:38;;;;;;;;;;;21.90;35.30;;;;;;478463;249;1025;-46
2021/12/03 05:56:39;;;;;;;;;;;21.80;35.60;;;;;;478016;249;1609;-46
2021/12/03 05:58:41;;;;;;;;;;;21.70;35.80;;;;;;478342;249;1106;-47
2021/12/03 06:00:42;;;;;;;;;;;21.60;35.90;;;;;;478191;249;1315;-46
2021/12/03 06:02:43;;;;;;;;;;;21.50;36.00;;;;;;478277;249;2199;-46
2021/12/03 06:04:44;;;;;;;;;;;21.50;36.10;;;;;;478153;248;1101;-46
2021/12/03 06:06:46;;;;;;;;;;;21.40;36.20;;;;;;478238;249;1201;-47
2021/12/03 06:08:47;;;;;;;;;;;21.40;36.40;;;;;;478164;249;1045;-46
2021/12/03 06:10:48;;;;;;;;;;;21.40;36.40;;;;;;478066;249;1316;-46
2021/12/03 06:12:50;;;;;;;;;;;21.40;36.40;;;;;;478335;248;1060;-46
2021/12/03 06:14:51;;;;;;;;;;;21.30;36.40;;;;;;478278;249;1427;-46
2021/12/03 06:16:52;;;;;;;;;;;21.30;36.40;;;;;;478116;248;1335;-46
2021/12/03 06:18:54;;;;;;;;;;;21.30;36.50;;;;;;478136;249;1079;-46
2021/12/03 06:20:55;;;;;;;;;;;21.20;36.50;;;;;;478129;249;1402;-47
2021/12/03 06:22:56;;;;;;;;;;;21.20;36.60;;;;;;478064;249;2151;-46
2021/12/03 06:24:58;;;;;;;;;;;21.20;36.60;;;;;;478319;249;1033;-46
2021/12/03 06:26:59;;;;;;;;;;;21.20;36.70;;;;;;478198;249;1212;-46
2021/12/03 06:29:00;;;;;;;;;;;21.20;36.70;;;;;;478213;249;1066;-46
2021/12/03 06:31:02;;;;;;;;;;;21.10;36.70;;;;;;477940;249;1239;-46
2021/12/03 06:33:05;;;;;;;;;;;21.20;36.70;;;;;;477968;249;1149;-46
2021/12/03 06:35:05;;;;;;;;;;;21.10;36.70;;;;;;478015;249;2334;-47
2021/12/03 06:37:06;;;;;;;;;;;21.10;36.70;;;;;;478141;249;1172;-46
2021/12/03 06:39:07;;;;;;;;;;;21.10;36.70;;;;;;478066;249;1105;-46
2021/12/03 06:41:09;;;;;;;;;;;21.10;36.70;;;;;;478272;249;1355;-46
2021/12/03 06:43:10;;;;;;;;;;;21.10;36.80;;;;;;478001;249;2207;-46
2021/12/03 06:45:11;;;;;;;;;;;21.10;36.80;;;;;;478081;249;1229;-47
2021/12/03 06:47:12;;;;;;;;;;;21.10;36.80;;;;;;477936;249;1261;-46
2021/12/03 06:49:14;;;;;;;;;;;21.00;36.80;;;;;;477958;249;1115;-46
2021/12/03 06:51:15;;;;;;;;;;;21.10;36.90;;;;;;477959;249;1146;-47
2021/12/03 06:53:17;;;;;;;;;;;21.00;36.90;;;;;;477947;249;1237;-46
2021/12/03 06:55:18;;;;;;;;;;;21.10;36.90;;;;;;478007;248;1832;-46
2021/12/03 06:57:19;;;;;;;;;;;21.00;36.90;;;;;;477957;249;1211;-46
2021/12/03 06:59:20;;;;;;;;;;;21.00;36.90;;;;;;477984;249;1139;-46
2021/12/03 07:01:22;;;;;;;;;;;21.00;36.90;;;;;;477895;249;1218;-46
2021/12/03 07:03:23;;;;;;;;;;;21.00;36.90;;;;;;477870;249;2219;-46
2021/12/03 07:05:24;;;;;;;;;;;20.90;36.90;;;;;;477897;249;1108;-46
2021/12/03 07:07:26;;;;;;;;;;;21.00;37.00;;;;;;477694;249;1517;-47
2021/12/03 07:09:27;;;;;;;;;;;20.90;37.00;;;;;;477843;249;1196;-46
2021/12/03 07:11:28;;;;;;;;;;;20.90;37.00;;;;;;477968;248;1120;-46
2021/12/03 07:13:31;;;;;;;;;;;20.90;37.00;;;;;;477949;249;1269;-46
2021/12/03 07:15:31;;;;;;;;;;;20.90;37.00;;;;;;477869;249;1333;-46
2021/12/03 07:17:33;;;;;;;;;;;20.90;36.90;;;;;;477809;249;1076;-46
2021/12/03 07:19:34;;;;;;;;;;;20.90;37.00;;;;;;477689;248;1826;-46
2021/12/03 07:21:35;;;;;;;;;;;20.90;36.90;;;;;;477905;249;1179;-46
2021/12/03 07:23:37;;;;;;;;;;;20.90;36.90;;;;;;477995;249;2152;-46
2021/12/03 07:25:38;;;;;;;;;;;20.90;36.90;;;;;;477622;249;1122;-46
2021/12/03 07:27:40;;;;;;;;;;;20.90;36.80;;;;;;477683;248;1281;-46
2021/12/03 07:29:46;;;;;;;;;;;20.90;36.80;;;;;;477760;248;2329;-46
2021/12/03 07:31:42;;;;;;;;;;;20.90;36.80;;;;;;477492;248;2232;-46
2021/12/03 07:33:44;;;;;;;;;;;20.90;36.80;;;;;;477879;249;1192;-46
2021/12/03 07:35:45;;;;;;;;;;;20.90;36.70;;;;;;477643;249;1082;-46
2021/12/03 07:37:46;;;;;;;;;;;20.90;36.80;;;;;;477497;249;1307;-46
2021/12/03 07:39:48;;;;;;;;;;;20.90;36.70;;;;;;477731;249;1272;-47
2021/12/03 07:41:49;;;;;;;;;;;20.90;36.70;;;;;;477816;249;1293;-46
2021/12/03 07:43:51;;;;;;;;;;;20.90;36.80;;;;;;477910;249;2195;-46
2021/12/03 07:45:52;;;;;;;;;;;20.90;36.80;;;;;;477639;248;1254;-46
2021/12/03 07:47:53;;;;;;;;;;;20.80;36.70;;;;;;477727;249;1149;-46
2021/12/03 07:49:55;;;;;;;;;;;20.80;36.70;;;;;;477787;249;1074;-46
2021/12/03 07:51:56;;;;;;;;;;;20.90;36.70;;;;;;477563;249;1165;-47
2021/12/03 07:53:57;;;;;;;;;;;20.90;36.70;;;;;;477853;249;1251;-46
2021/12/03 07:55:59;;;;;;;;;;;20.80;36.70;;;;;;477860;249;1339;-46
2021/12/03 07:58:01;;;;;;;;;;;20.90;36.60;;;;;;477828;249;1239;-46
2021/12/03 08:00:02;;;;;;;;;;;20.90;36.60;;;;;;477476;249;2159;-46
2021/12/03 08:02:03;;;;;;;;;;;20.80;36.60;;;;;;477730;249;1213;-46
2021/12/03 08:04:04;;;;;;;;;;;20.80;36.60;;;;;;477663;249;2187;-46
2021/12/03 08:06:09;;;;;;;;;;;20.80;36.70;;;;;;477599;249;1323;-47
2021/12/03 08:08:08;;;;;;;;;;;20.80;36.70;;;;;;477528;248;2114;-47
2021/12/03 08:10:09;;;;;;;;;;;20.80;36.70;;;;;;477684;249;1190;-46
2021/12/03 08:12:10;;;;;;;;;;;20.80;36.70;;;;;;477525;249;1194;-46
2021/12/03 08:14:12;;;;;;;;;;;20.80;36.60;;;;;;477589;249;1178;-46
2021/12/03 08:16:13;;;;;;;;;;;20.80;36.60;;;;;;477733;249;1474;-46
2021/12/03 08:18:14;;;;;;;;;;;20.80;36.50;;;;;;477740;248;1215;-46
2021/12/03 08:20:16;;;;;;;;;;;20.80;36.50;;;;;;477724;249;1247;-46
2021/12/03 08:22:17;;;;;;;;;;;20.80;36.40;;;;;;477610;249;1223;-46
2021/12/03 08:24:18;;;;;;;;;;;20.80;36.50;;;;;;477562;249;2210;-46
2021/12/03 08:26:20;;;;;;;;;;;20.80;36.50;;;;;;477509;248;1116;-46
2021/12/03 08:28:21;;;;;;;;;;;20.80;36.60;;;;;;477555;249;1213;-46
2021/12/03 08:30:25;;;;;;;;;;;20.80;36.60;;;;;;477746;249;1092;-46
2021/12/03 08:32:24;;;;;;;;;;;20.70;36.60;;;;;;477520;248;2258;-46
2021/12/03 08:34:25;;;;;;;;;;;20.70;36.50;;;;;;477700;249;1102;-46
2021/12/03 08:36:26;;;;;;;;;;;20.70;36.50;;;;;;477648;248;1188;-46
2021/12/03 08:38:28;;;;;;;;;;;20.70;36.50;;;;;;477649;249;1200;-46
2021/12/03 08:40:29;;;;;;;;;;;20.70;36.40;;;;;;477718;249;1244;-46
2021/12/03 08:42:30;;;;;;;;;;;20.60;36.50;;;;;;477819;249;1501;-46
2021/12/03 08:44:32;;;;;;;;;;;20.70;36.50;;;;;;477656;249;2202;-46
2021/12/03 08:46:35;;;;;;;;;;;20.70;36.40;;;;;;477623;249;1659;-46
2021/12/03 08:48:38;;;;;;;;;;;20.70;36.40;;;;;;477596;248;2033;-46
2021/12/03 08:50:47;;;;;;;;;;;20.70;36.30;;;;;;477536;249;2375;-46
2021/12/03 08:53:04;;;;;;;;;;;20.70;36.30;;;;;;477072;249;2136;-46
2021/12/03 08:54:53;;;;;;;;;;;20.70;36.30;;;;;;476828;248;2320;-46
2021/12/03 08:56:53;;;;;;;;;;;20.70;36.30;;;;;;477517;249;2298;-46
2021/12/03 08:58:55;;;;;;;;;;;20.70;36.30;;;;;;477532;249;1067;-46
2021/12/03 09:00:56;;;;;;;;;;;20.70;36.30;;;;;;477300;249;1445;-46
2021/12/03 09:02:57;;;;;;;;;;;20.70;36.30;;;;;;477451;249;1134;-46
2021/12/03 09:04:59;;;;;;;;;;;20.70;36.30;;;;;;477685;249;2116;-46
2021/12/03 09:07:00;;;;;;;;;;;20.70;36.20;;;;;;477599;249;1063;-46
2021/12/03 09:09:01;;;;;;;;;;;20.70;36.20;;;;;;477581;249;1344;-46
2021/12/03 09:11:05;;;;;;;;;;;20.70;36.20;;;;;;477592;248;1194;-46
2021/12/03 09:13:06;;;;;;;;;;;20.70;36.20;;;;;;477518;249;1101;-46
2021/12/03 09:15:10;;;;;;;;;;;20.70;36.10;;;;;;477601;249;1067;-47
2021/12/03 09:17:23;;;;;;;;;;;20.70;36.10;;;;;;477513;249;2136;-46
2021/12/03 09:19:21;;;;;;;;;;;20.70;36.10;;;;;;477226;248;2032;-46
2021/12/03 09:21:23;;;;;;;;;;;20.70;36.10;;;;;;477426;248;1343;-46
2021/12/03 09:23:30;;;;;;;;;;;20.70;36.10;;;;;;477520;249;2035;-46
2021/12/03 09:25:32;;;;;;;;;;;20.70;36.10;;;;;;477153;249;2231;-46
2021/12/03 09:27:31;;;;;;;;;;;20.70;36.00;;;;;;477097;248;1656;-47
2021/12/03 09:29:34;;;;;;;;;;;20.60;36.00;;;;;;477524;249;1220;-46
2021/12/03 09:31:35;;;;;;;;;;;20.70;36.00;;;;;;477447;249;2204;-47
2021/12/03 09:33:36;;;;;;;;;;;20.70;36.00;;;;;;477530;249;1610;-46
2021/12/03 09:35:40;;;;;;;;;;;20.70;36.00;;;;;;477712;248;1369;-46
2021/12/03 09:37:38;;;;;;;;;;;20.70;36.00;;;;;;477358;249;2093;-46
2021/12/03 09:39:40;;;;;;;;;;;20.60;35.90;;;;;;477683;249;1292;-46
2021/12/03 09:41:40;;;;;;;;;;;20.60;36.00;;;;;;477367;248;1841;-46
2021/12/03 09:43:42;;;;;;;;;;;20.60;35.90;;;;;;477557;249;2210;-46
2021/12/03 09:45:53;;;;;;;;;;;20.70;36.00;;;;;;477635;248;1148;-46
2021/12/03 09:47:46;;;;;;;;;;;20.60;35.90;;;;;;476988;249;2192;-46
2021/12/03 09:49:53;;;;;;;;;;;20.60;35.90;;;;;;477638;249;1054;-46
2021/12/03 09:51:54;;;;;;;;;;;20.60;35.90;;;;;;477071;249;1986;-46
2021/12/03 09:54:21;;;;;;;;;;;20.60;35.90;;;;;;477404;248;2047;-46
2021/12/03 09:56:18;;;;;;;;;;;20.60;35.90;;;;;;477323;248;1688;-46
2021/12/03 09:58:35;;;;;;;;;;;20.60;35.90;;;;;;477716;248;1119;-46
2021/12/03 10:00:31;;;;;;;;;;;20.60;35.90;;;;;;477006;248;2285;-46
2021/12/03 10:02:39;;;;;;;;;;;20.50;35.80;;;;;;477287;249;1727;-46
2021/12/03 10:10:12;;;;;;;;;;;20.60;35.70;;;;;;477610;248;1581;-46
2021/12/03 10:14:33;;;;;;;;;;;20.60;35.70;;;;;;477572;249;1100;-46
2021/12/03 10:16:53;;;;;;;;;;;20.60;35.60;;;;;;477260;249;1747;-46
2021/12/03 10:18:46;;;;;;;;;;;20.60;35.60;;;;;;476943;249;1989;-46
2021/12/03 10:20:50;;;;;;;;;;;20.60;35.60;;;;;;477648;249;2317;-46
2021/12/03 10:30:29;;;;;;;;;;;20.60;35.70;;;;;;462221;257;1210;-46
2021/12/03 10:39:47;;;;;;;;;;;20.50;35.60;;;;;;477543;249;1123;-46
2021/12/03 10:41:51;;;;;;;;;;;20.50;35.60;;;;;;477404;248;2170;-46
2021/12/03 10:44:11;;;;;;;;;;;20.50;35.60;;;;;;477084;248;1997;-46
2021/12/03 10:46:20;;;;;;;;;;;20.60;35.60;;;;;;477423;248;2072;-46
2021/12/03 10:48:30;;;;;;;;;;;20.50;35.60;;;;;;477266;248;1497;-46
2021/12/03 10:50:45;;;;;;;;;;;20.60;35.50;;;;;;477306;248;2040;-46
2021/12/03 10:53:00;;;;;;;;;;;20.50;35.40;;;;;;477249;248;1556;-46
2021/12/03 10:57:35;;;;;;;;;;;20.50;35.40;;;;;;477473;249;1935;-46
2021/12/03 11:04:57;;;;;;;;;;;20.60;35.40;;;;;;477747;248;2131;-46
2021/12/03 11:07:16;;;;;;;;;;;20.50;35.30;;;;;;476422;248;2204;-45
2021/12/03 11:14:58;;;;;;;;;;;20.50;35.30;;;;;;477772;248;1175;-46
2021/12/03 11:16:57;;;;;;;;;;;20.50;35.20;;;;;;475918;249;1794;-46
2021/12/03 11:28:51;;;;;;;;;;;20.50;35.20;;;;;;477627;248;1333;-46
2021/12/03 11:30:52;;;;;;;;;;;20.50;35.20;;;;;;476192;248;2219;-46
2021/12/03 11:45:27;;;;;;;;;;;20.50;35.10;;;;;;477743;248;2195;-45
2021/12/03 12:16:22;;;;;;;;;;;20.50;34.80;;;;;;477675;248;1243;-46
2021/12/03 12:25:54;;;;;;;;;;;20.50;34.70;;;;;;477711;249;2190;-46
2021/12/03 12:28:26;;;;;;;;;;;20.40;34.70;;;;;;476410;249;1228;-46
2021/12/03 12:58:03;;;;;;;;;;;20.40;34.40;;;;;;467146;249;1297;-45
2021/12/03 13:00:13;;;;;;;;;;;20.50;34.40;;;;;;476260;248;1757;-46
2021/12/03 13:09:38;;;;;;;;;;;20.50;34.50;;;;;;477823;248;1132;-46
2021/12/03 13:16:41;;;;;;;;;;;20.40;34.40;;;;;;477732;248;1217;-46
2021/12/03 13:20:54;;;;;;;;;;;20.50;34.40;;;;;;475227;249;1567;-46
2021/12/03 13:23:18;;;;;;;;;;;20.40;34.30;;;;;;477002;249;2266;-45
2021/12/03 13:25:31;;;;;;;;;;;20.50;34.30;;;;;;477154;248;2194;-46
2021/12/03 13:31:23;;;;;;;;;;;20.50;34.40;;;;;;477804;249;1137;-46
2021/12/03 13:33:10;;;;;;;;;;;20.50;34.30;;;;;;476683;249;1771;-46
2021/12/03 13:57:08;;;;;;;;;;;20.60;34.10;;;;;;477928;248;1623;-46
2021/12/03 14:04:25;;;;;;;;;;;20.70;34.00;;;;;;470623;249;1280;-45
2021/12/03 14:06:54;;;;;;;;;;;20.60;34.00;;;;;;476549;248;2183;-45
2021/12/03 14:22:02;;;;;;;;;;;20.70;34.00;;;;;;472157;252;1363;-46
2021/12/03 14:39:49;;;;;;;;;;;20.60;34.10;;;;;;469095;251;1212;-46
2021/12/03 14:42:00;;;;;;;;;;;20.60;34.00;;;;;;474347;242;2257;-46
2021/12/03 14:44:10;;;;;;;;;;;20.60;34.00;;;;;;491682;242;2183;-46
2021/12/03 14:46:12;;;;;;;;;;;20.50;34.00;;;;;;492647;241;2184;-46
2021/12/03 14:48:33;;;;;;;;;;;20.60;34.10;;;;;;472800;250;1692;-46
2021/12/03 14:53:14;;;;;;;;;;;20.60;34.10;;;;;;481166;245;1193;-46
2021/12/03 14:55:11;;;;;;;;;;;20.50;34.00;;;;;;475521;249;1869;-46
2021/12/03 14:57:15;;;;;;;;;;;20.50;34.10;;;;;;475354;249;1202;-46
2021/12/03 14:59:18;;;;;;;;;;;20.50;34.00;;;;;;475293;249;1514;-46
2021/12/03 15:01:25;;;;;;;;;;;20.50;34.00;;;;;;475272;250;2531;-46
2021/12/03 15:03:45;;;;;;;;;;;20.50;34.10;;;;;;474993;250;2227;-46
2021/12/03 15:05:57;;;;;;;;;;;20.50;34.10;;;;;;475051;250;2322;-46
2021/12/03 15:07:55;;;;;;;;;;;20.40;34.10;;;;;;475225;250;1552;-46
2021/12/03 15:09:56;;;;;;;;;;;20.50;34.10;;;;;;493199;241;1049;-46
2021/12/03 15:12:32;;;;;;;;;;;20.50;34.00;;;;;;473193;249;1137;-46
2021/12/03 15:19:14;;;;;;;;;;;20.50;34.00;;;;;;462500;249;1385;-46
2021/12/03 15:23:41;;;;;;;;;;;20.50;34.00;;;;;;475140;250;1186;-46
2021/12/03 15:25:47;;;;;;;;;;;20.50;34.10;;;;;;475019;250;2148;-46
2021/12/03 15:28:00;;;;;;;;;;;20.50;34.00;;;;;;475052;250;1393;-46
2021/12/03 15:32:15;;;;;;;;;;;20.50;34.00;;;;;;475432;250;1226;-46